createdAt,value
2023-02-23T00:01:22.190Z,59.18
2023-02-23T00:04:29.828Z,59.10
2023-02-23T00:07:36.914Z,58.88
2023-02-23T00:10:44.633Z,58.80
2023-02-23T00:13:54.284Z,58.76
2023-02-23T00:17:01.477Z,58.83
2023-02-23T00:20:12.835Z,58.77
2023-02-23T00:23:19.409Z,58.55
2023-02-23T00:26:31.094Z,58.53
2023-02-23T00:29:40.694Z,58.85
2023-02-23T00:32:47.220Z,58.82
2023-02-23T00:35:55.631Z,59.12
2023-02-23T00:39:06.512Z,59.35
2023-02-23T00:42:13.779Z,59.37
2023-02-23T00:45:22.238Z,58.97
2023-02-23T00:48:28.891Z,59.17
2023-02-23T00:51:34.798Z,59.05
2023-02-23T00:54:41.416Z,59.25
2023-02-23T00:57:47.343Z,59.08
2023-02-23T01:00:57.203Z,58.90
2023-02-23T01:04:04.818Z,58.91
2023-02-23T01:07:13.117Z,59.06
2023-02-23T01:10:22.651Z,59.13
2023-02-23T01:13:29.923Z,58.90
2023-02-23T01:16:39.195Z,58.42
2023-02-23T01:19:45.764Z,58.41
2023-02-23T01:22:54.272Z,58.36
2023-02-23T01:26:01.730Z,58.22
2023-02-23T01:29:11.304Z,58.05
2023-02-23T01:32:20.555Z,58.18
2023-02-23T01:35:27.245Z,58.03
2023-02-23T01:38:33.760Z,58.20
2023-02-23T01:41:42.616Z,58.25
2023-02-23T01:45:27.233Z,58.50
2023-02-23T01:48:43.582Z,58.30
2023-02-23T01:51:58.873Z,58.66
2023-02-23T01:55:06.322Z,58.79
2023-02-23T01:58:21.909Z,58.32
2023-02-23T02:01:29.755Z,58.43
2023-02-23T02:04:46.865Z,58.36
2023-02-23T02:07:59.252Z,58.49
2023-02-23T02:11:25.975Z,58.34
2023-02-23T02:14:35.088Z,58.75
2023-02-23T02:18:03.393Z,58.66
2023-02-23T02:22:12.564Z,58.95
2023-02-23T02:25:43.984Z,58.85
2023-02-23T02:29:43.146Z,58.92
2023-02-23T02:33:46.916Z,58.90
2023-02-23T02:37:36.172Z,58.53
2023-02-23T02:40:56.065Z,58.58
2023-02-23T02:44:18.192Z,58.65
2023-02-23T02:47:36.704Z,58.63
2023-02-23T02:50:56.405Z,58.92
2023-02-23T02:54:17.167Z,58.39
2023-02-23T02:57:29.997Z,58.67
2023-02-23T03:00:55.184Z,58.72
2023-02-23T03:04:18.491Z,58.75
2023-02-23T03:07:46.925Z,59.08
2023-02-23T03:11:18.031Z,59.33
2023-02-23T03:14:59.517Z,59.59
2023-02-23T03:18:52.144Z,59.55
2023-02-23T03:22:23.255Z,59.82
2023-02-23T03:25:58.502Z,59.78
2023-02-23T03:29:32.128Z,59.58
2023-02-23T03:33:03.584Z,60.00
2023-02-23T03:36:34.651Z,59.93
2023-02-23T03:40:07.541Z,59.90
2023-02-23T03:43:34.867Z,60.33
2023-02-23T03:47:02.055Z,60.06
2023-02-23T03:50:30.779Z,60.32
2023-02-23T03:54:00.064Z,60.23
2023-02-23T03:57:28.601Z,60.50
2023-02-23T04:00:57.678Z,60.31
2023-02-23T04:04:23.355Z,60.32
2023-02-23T04:07:42.137Z,59.86
2023-02-23T04:11:13.902Z,60.23
2023-02-23T04:14:30.099Z,60.36
2023-02-23T04:17:37.823Z,60.20
2023-02-23T04:20:47.999Z,60.57
2023-02-23T04:23:54.890Z,60.39
2023-02-23T04:27:01.724Z,60.57
2023-02-23T04:30:11.685Z,60.76
2023-02-23T04:33:18.675Z,60.98
2023-02-23T04:36:28.003Z,61.00
2023-02-23T04:39:34.059Z,61.05
2023-02-23T04:42:43.062Z,61.21
2023-02-23T04:45:50.877Z,61.28
2023-02-23T04:48:57.417Z,61.29
2023-02-23T04:52:06.269Z,61.26
2023-02-23T04:55:21.641Z,61.17
2023-02-23T04:58:27.893Z,61.45
2023-02-23T05:01:34.502Z,61.31
2023-02-23T05:04:40.496Z,61.26
2023-02-23T05:07:50.041Z,61.31
2023-02-23T05:10:55.810Z,61.49
2023-02-23T05:14:02.430Z,61.56
2023-02-23T05:17:08.827Z,61.74
2023-02-23T05:20:17.898Z,61.75
2023-02-23T05:23:26.369Z,61.90
2023-02-23T05:26:33.003Z,62.40
2023-02-23T05:29:39.123Z,61.77
2023-02-23T05:32:45.779Z,62.01
2023-02-23T05:35:51.937Z,61.74
2023-02-23T05:39:01.220Z,62.10
2023-02-23T05:42:07.324Z,62.07
2023-02-23T05:45:14.791Z,62.24
2023-02-23T05:48:20.559Z,62.08
2023-02-23T05:51:27.263Z,62.41
2023-02-23T05:54:35.725Z,61.95
2023-02-23T05:57:43.990Z,62.00
2023-02-23T06:00:49.782Z,61.94
2023-02-23T06:03:56.923Z,62.06
2023-02-23T06:07:02.872Z,62.38
2023-02-23T06:10:14.591Z,62.33
2023-02-23T06:13:21.478Z,62.27
2023-02-23T06:16:28.269Z,62.26
2023-02-23T06:19:34.308Z,62.62
2023-02-23T06:22:42.499Z,62.57
2023-02-23T06:25:51.168Z,62.38
2023-02-23T06:28:58.261Z,62.21
2023-02-23T06:32:04.180Z,62.13
2023-02-23T06:35:12.042Z,62.22
2023-02-23T06:38:18.093Z,62.02
2023-02-23T06:41:28.977Z,62.16
2023-02-23T06:44:35.641Z,61.50
2023-02-23T06:47:42.918Z,61.94
2023-02-23T06:50:48.675Z,61.77
2023-02-23T06:53:55.793Z,61.70
2023-02-23T06:57:04.653Z,60.74
2023-02-23T07:00:15.278Z,61.25
2023-02-23T07:03:22.131Z,60.49
2023-02-23T07:06:28.860Z,60.54
2023-02-23T07:09:34.804Z,60.21
2023-02-23T07:12:43.971Z,60.13
2023-02-23T07:15:49.845Z,60.25
2023-02-23T07:18:56.833Z,60.44
2023-02-23T07:22:03.127Z,60.42
2023-02-23T07:25:11.688Z,60.14
2023-02-23T07:28:21.288Z,60.48
2023-02-23T07:31:28.620Z,60.44
2023-02-23T07:34:34.465Z,60.23
2023-02-23T07:37:42.367Z,59.40
2023-02-23T07:40:48.217Z,59.86
2023-02-23T07:43:57.552Z,59.84
2023-02-23T07:47:03.640Z,59.59
2023-02-23T07:50:12.856Z,59.23
2023-02-23T07:53:19.040Z,59.43
2023-02-23T07:56:26.117Z,58.61
2023-02-23T07:59:37.465Z,57.82
2023-02-23T08:02:44.897Z,57.62
2023-02-23T08:05:51.036Z,57.27
2023-02-23T08:08:57.599Z,57.19
2023-02-23T08:12:04.006Z,57.16
2023-02-23T08:15:14.598Z,56.86
2023-02-23T08:18:20.647Z,56.64
2023-02-23T08:21:29.423Z,57.06
2023-02-23T08:24:35.760Z,56.85
2023-02-23T08:27:42.579Z,56.71
2023-02-23T08:30:51.040Z,56.46
2023-02-23T08:33:57.932Z,55.67
2023-02-23T08:37:03.852Z,55.39
2023-02-23T08:40:15.723Z,55.46
2023-02-23T08:43:21.491Z,54.83
2023-02-23T08:46:31.676Z,55.39
2023-02-23T08:49:37.527Z,55.20
2023-02-23T08:52:45.363Z,55.98
2023-02-23T08:56:00.823Z,55.72
2023-02-23T08:59:08.028Z,56.00
2023-02-23T09:02:18.325Z,55.12
2023-02-23T09:05:24.950Z,55.46
2023-02-23T09:08:30.904Z,54.89
2023-02-23T09:11:37.604Z,54.01
2023-02-23T09:14:43.332Z,53.33
2023-02-23T09:17:54.756Z,53.22
2023-02-23T09:21:00.817Z,52.24
2023-02-23T09:24:08.272Z,51.08
2023-02-23T09:27:15.126Z,50.90
2023-02-23T09:30:24.718Z,50.80
2023-02-23T09:33:33.062Z,49.81
2023-02-23T09:36:40.280Z,50.49
2023-02-23T09:39:46.507Z,51.06
2023-02-23T09:43:06.482Z,49.42
2023-02-23T09:46:31.143Z,49.36
2023-02-23T09:49:48.006Z,48.28
2023-02-23T09:53:03.360Z,48.12
2023-02-23T09:56:21.569Z,48.11
2023-02-23T09:59:29.511Z,48.14
2023-02-23T10:02:58.390Z,47.57
2023-02-23T10:06:14.350Z,46.79
2023-02-23T10:09:45.924Z,46.21
2023-02-23T10:13:08.282Z,45.97
2023-02-23T10:16:27.822Z,45.45
2023-02-23T10:19:50.808Z,44.12
2023-02-23T10:23:12.141Z,44.18
2023-02-23T10:26:27.052Z,44.54
2023-02-23T10:29:42.754Z,44.15
2023-02-23T10:32:59.272Z,44.91
2023-02-23T10:36:22.258Z,44.31
2023-02-23T10:39:32.899Z,44.25
2023-02-23T10:42:39.541Z,44.27
2023-02-23T10:45:51.540Z,43.49
2023-02-23T10:49:00.703Z,43.81
2023-02-23T10:52:07.608Z,44.45
2023-02-23T10:55:28.824Z,43.44
2023-02-23T10:58:43.882Z,42.96
2023-02-23T11:02:01.333Z,43.18
2023-02-23T11:05:10.329Z,43.61
2023-02-23T11:08:32.205Z,43.34
2023-02-23T11:11:40.720Z,42.84
2023-02-23T11:14:48.308Z,43.94
2023-02-23T11:18:01.309Z,43.32
2023-02-23T11:21:15.645Z,43.92
2023-02-23T11:24:31.055Z,43.82
2023-02-23T11:27:40.358Z,44.25
2023-02-23T11:30:46.477Z,43.82
2023-02-23T11:33:57.511Z,43.34
2023-02-23T11:37:08.688Z,44.12
2023-02-23T11:40:28.116Z,43.73
2023-02-23T11:43:36.822Z,44.74
2023-02-23T11:46:46.811Z,44.56
2023-02-23T11:49:55.345Z,43.87
2023-02-23T11:53:09.737Z,44.41
2023-02-23T11:56:25.865Z,43.98
2023-02-23T11:59:41.466Z,44.25
2023-02-23T12:02:56.661Z,45.05
2023-02-23T12:06:03.237Z,44.97
2023-02-23T12:09:25.677Z,45.12
2023-02-23T12:12:43.033Z,44.92
2023-02-23T12:16:00.333Z,44.81
2023-02-23T12:19:25.882Z,44.92
2023-02-23T12:22:41.777Z,44.92
2023-02-23T12:25:57.764Z,45.09
2023-02-23T12:29:20.586Z,45.00
2023-02-23T12:32:43.791Z,44.76
2023-02-23T12:36:01.016Z,44.88
2023-02-23T12:39:24.594Z,45.64
2023-02-23T12:42:48.324Z,45.84
2023-02-23T12:46:02.653Z,45.86
2023-02-23T12:49:25.704Z,45.76
2023-02-23T12:52:40.222Z,46.11
2023-02-23T12:56:07.672Z,45.98
2023-02-23T12:59:59.823Z,46.53
2023-02-23T13:03:45.010Z,46.24
2023-02-23T13:07:09.458Z,45.44
2023-02-23T13:10:32.666Z,45.47
2023-02-23T13:13:51.981Z,45.40
2023-02-23T13:17:11.708Z,44.85
2023-02-23T13:20:33.725Z,45.01
2023-02-23T13:23:57.873Z,44.45
2023-02-23T13:27:19.508Z,44.07
2023-02-23T13:30:25.439Z,44.22
2023-02-23T13:33:43.646Z,44.35
2023-02-23T13:36:52.390Z,44.46
2023-02-23T13:40:22.117Z,44.33
2023-02-23T13:43:37.633Z,43.99
2023-02-23T13:46:57.657Z,43.96
2023-02-23T13:50:19.350Z,42.87
2023-02-23T13:53:41.454Z,43.31
2023-02-23T13:56:57.071Z,43.68
2023-02-23T14:00:05.084Z,44.23
2023-02-23T14:03:34.240Z,44.15
2023-02-23T14:06:43.231Z,44.05
2023-02-23T14:10:01.677Z,44.75
2023-02-23T14:13:31.767Z,45.49
2023-02-23T14:16:37.756Z,45.73
2023-02-23T14:19:46.857Z,44.75
2023-02-23T14:23:33.356Z,45.57
2023-02-23T14:26:48.416Z,44.98
2023-02-23T14:30:25.611Z,45.04
2023-02-23T14:34:03.599Z,45.51
2023-02-23T14:37:25.283Z,45.61
2023-02-23T14:40:38.005Z,46.12
2023-02-23T14:43:48.641Z,46.56
2023-02-23T14:47:07.259Z,46.19
2023-02-23T14:50:25.803Z,46.87
2023-02-23T14:53:32.434Z,46.66
2023-02-23T14:56:48.338Z,46.67
2023-02-23T15:00:05.998Z,47.07
2023-02-23T15:03:22.595Z,47.11
2023-02-23T15:06:29.382Z,47.32
2023-02-23T15:09:44.021Z,47.90
2023-02-23T15:12:52.138Z,48.41
2023-02-23T15:16:01.880Z,48.29
2023-02-23T15:19:11.431Z,48.74
2023-02-23T15:22:30.003Z,48.99
2023-02-23T15:25:40.689Z,49.16
2023-02-23T15:28:49.100Z,49.03
2023-02-23T15:31:58.630Z,48.98
2023-02-23T15:35:12.078Z,49.11
2023-02-23T15:38:42.355Z,49.40
2023-02-23T15:41:52.832Z,50.00
2023-02-23T15:45:05.056Z,49.92
2023-02-23T15:48:21.095Z,50.60
2023-02-23T15:51:40.610Z,50.67
2023-02-23T15:55:00.507Z,50.72
2023-02-23T15:58:21.717Z,50.67
2023-02-23T16:01:30.700Z,51.12
2023-02-23T16:04:44.503Z,51.22
2023-02-23T16:08:07.205Z,51.19
2023-02-23T16:11:19.965Z,51.73
2023-02-23T16:14:30.632Z,51.61
2023-02-23T16:17:48.533Z,52.13
2023-02-23T16:20:58.879Z,52.61
2023-02-23T16:24:22.358Z,52.51
2023-02-23T16:27:32.751Z,52.21
2023-02-23T16:30:45.924Z,52.49
2023-02-23T16:33:58.844Z,52.77
2023-02-23T16:37:18.481Z,52.73
2023-02-23T16:40:27.616Z,53.15
2023-02-23T16:43:37.214Z,53.13
2023-02-23T16:47:01.665Z,53.21
2023-02-23T16:50:21.220Z,53.20
2023-02-23T16:53:27.500Z,53.40
2023-02-23T16:56:37.554Z,53.54
2023-02-23T16:59:43.746Z,53.34
2023-02-23T17:02:50.572Z,53.28
2023-02-23T17:05:57.580Z,53.26
2023-02-23T17:09:04.586Z,53.37
2023-02-23T17:12:18.507Z,53.41
2023-02-23T17:15:29.339Z,53.50
2023-02-23T17:18:43.116Z,53.88
2023-02-23T17:21:50.133Z,53.74
2023-02-23T17:24:55.942Z,53.70
2023-02-23T17:28:05.826Z,53.89
2023-02-23T17:31:12.084Z,54.13
2023-02-23T17:34:18.812Z,54.40
2023-02-23T17:37:25.180Z,54.21
2023-02-23T17:40:36.512Z,54.16
2023-02-23T17:43:45.219Z,54.47
2023-02-23T17:46:51.945Z,54.55
2023-02-23T17:49:57.855Z,54.63
2023-02-23T17:53:04.387Z,54.32
2023-02-23T17:56:11.943Z,54.38
2023-02-23T17:59:21.142Z,54.44
2023-02-23T18:02:27.910Z,54.29
2023-02-23T18:05:34.829Z,54.40
2023-02-23T18:08:43.986Z,54.27
2023-02-23T18:11:50.575Z,54.56
2023-02-23T18:15:01.798Z,54.87
2023-02-23T18:18:08.509Z,54.82
2023-02-23T18:21:19.298Z,54.72
2023-02-23T18:24:27.467Z,54.85
2023-02-23T18:27:33.534Z,54.67
2023-02-23T18:30:43.744Z,55.15
2023-02-23T18:33:53.112Z,55.42
2023-02-23T18:37:03.760Z,55.35
2023-02-23T18:40:21.625Z,55.56
2023-02-23T18:43:28.496Z,55.59
2023-02-23T18:46:37.779Z,55.76
2023-02-23T18:49:44.371Z,55.76
2023-02-23T18:52:53.216Z,55.84
2023-02-23T18:56:08.941Z,55.81
2023-02-23T18:59:15.554Z,55.53
2023-02-23T19:02:25.443Z,55.47
2023-02-23T19:05:31.584Z,55.80
2023-02-23T19:08:38.361Z,56.33
2023-02-23T19:11:46.509Z,56.77
2023-02-23T19:14:54.388Z,56.87
2023-02-23T19:18:02.860Z,56.68
2023-02-23T19:21:09.939Z,56.43
2023-02-23T19:24:16.174Z,56.44
2023-02-23T19:27:23.660Z,56.56
2023-02-23T19:30:29.644Z,56.41
2023-02-23T19:33:41.181Z,56.57
2023-02-23T19:36:47.218Z,56.44
2023-02-23T19:39:54.145Z,55.86
2023-02-23T19:43:00.649Z,56.02
2023-02-23T19:46:08.248Z,56.13
2023-02-23T19:49:16.709Z,55.99
2023-02-23T19:52:24.899Z,55.99
2023-02-23T19:55:31.155Z,55.96
2023-02-23T19:58:38.957Z,55.70
2023-02-23T20:01:45.988Z,55.76
2023-02-23T20:04:55.297Z,55.84
2023-02-23T20:08:01.266Z,55.76
2023-02-23T20:11:09.860Z,55.93
2023-02-23T20:14:15.731Z,56.03
2023-02-23T20:17:23.888Z,56.12
2023-02-23T20:20:32.296Z,56.23
2023-02-23T20:23:39.016Z,56.13
2023-02-23T20:26:45.432Z,56.02
2023-02-23T20:29:53.892Z,55.84
2023-02-23T20:33:00.557Z,55.89
2023-02-23T20:36:12.264Z,56.06
2023-02-23T20:39:19.271Z,56.17
2023-02-23T20:42:28.542Z,56.54
2023-02-23T20:45:34.695Z,56.05
2023-02-23T20:48:41.391Z,56.10
2023-02-23T20:51:51.987Z,55.75
2023-02-23T20:54:59.374Z,55.80
2023-02-23T20:58:06.033Z,56.01
2023-02-23T21:01:19.343Z,55.46
2023-02-23T21:04:26.822Z,55.19
2023-02-23T21:07:36.106Z,55.02
2023-02-23T21:10:43.362Z,55.23
2023-02-23T21:13:50.347Z,55.47
2023-02-23T21:16:56.098Z,55.24
2023-02-23T21:20:02.662Z,55.16
2023-02-23T21:23:11.203Z,55.21
2023-02-23T21:26:21.814Z,55.15
2023-02-23T21:29:28.136Z,55.18
2023-02-23T21:32:41.452Z,54.67
2023-02-23T21:35:47.400Z,54.41
2023-02-23T21:38:56.750Z,54.40
2023-02-23T21:42:04.346Z,54.02
2023-02-23T21:45:14.085Z,53.75
2023-02-23T21:48:22.767Z,54.44
2023-02-23T21:51:30.695Z,54.06
2023-02-23T21:54:39.764Z,54.15
2023-02-23T21:57:47.996Z,54.42
2023-02-23T22:00:53.837Z,54.71
2023-02-23T22:04:01.464Z,54.69
2023-02-23T22:07:08.295Z,54.67
2023-02-23T22:10:17.838Z,54.89
2023-02-23T22:13:23.570Z,55.42
2023-02-23T22:16:33.446Z,56.12
2023-02-23T22:19:39.155Z,56.28
2023-02-23T22:22:45.783Z,56.22
2023-02-23T22:25:54.132Z,56.26
2023-02-23T22:29:00.794Z,56.46
2023-02-23T22:32:06.720Z,56.28
2023-02-23T22:35:14.709Z,56.41
2023-02-23T22:38:21.996Z,56.01
2023-02-23T22:41:32.076Z,56.00
2023-02-23T22:44:41.541Z,55.75
2023-02-23T22:47:48.337Z,55.67
2023-02-23T22:50:54.665Z,55.76
2023-02-23T22:54:01.269Z,55.61
2023-02-23T22:57:09.914Z,55.21
2023-02-23T23:00:21.364Z,55.12
2023-02-23T23:03:27.632Z,55.30
2023-02-23T23:06:34.476Z,55.04
2023-02-23T23:09:40.266Z,55.24
2023-02-23T23:12:49.670Z,55.11
2023-02-23T23:16:07.474Z,55.24
2023-02-23T23:19:16.233Z,55.01
2023-02-23T23:22:22.092Z,54.94
2023-02-23T23:25:29.702Z,54.98
2023-02-23T23:28:40.732Z,54.76
2023-02-23T23:31:48.078Z,54.85
2023-02-23T23:34:57.492Z,54.81
2023-02-23T23:38:06.289Z,55.05
2023-02-23T23:41:14.309Z,54.92
2023-02-23T23:44:29.435Z,54.87
2023-02-23T23:47:35.487Z,54.83
2023-02-23T23:50:42.484Z,54.81
2023-02-23T23:53:48.253Z,54.99
2023-02-23T23:56:55.295Z,54.73
